Time;durP1;ratioP1;P1;durP2;ratioP2;P2;SDS_P1;SDS_P2;PMS_P1;PMS_P2;Temp;Humidity;BMP_temperature;BMP_pressure;BME280_temperature;BME280_humidity;BME280_pressure;Samples;Min_cycle;Max_cycle;Signal;HPM_P1;HPM_P2
2021/12/02 00:02:06;;;;;;;6.85;1.38;;;4.20;99.90;;;;;;5051845;28;20036;-84
2021/12/02 00:04:34;;;;;;;6.85;1.30;;;4.20;99.90;;;;;;5052584;28;20048;-84
2021/12/02 00:07:00;;;;;;;5.82;1.10;;;4.20;99.90;;;;;;5052686;28;20041;-84
2021/12/02 00:09:26;;;;;;;5.97;0.98;;;4.20;99.90;;;;;;5053444;28;20041;-84
2021/12/02 00:11:51;;;;;;;7.75;1.38;;;4.10;99.90;;;;;;5069954;28;20044;-84
2021/12/02 00:14:23;;;;;;;8.70;1.17;;;4.10;99.90;;;;;;5053077;28;20044;-84
2021/12/02 00:17:03;;;;;;;6.27;0.97;;;4.10;99.90;;;;;;5036799;28;20039;-84
2021/12/02 00:22:13;;;;;;;6.03;0.98;;;4.10;99.90;;;;;;5069433;28;20091;-84
2021/12/02 00:24:40;;;;;;;8.00;1.50;;;4.10;99.90;;;;;;5051689;28;20107;-84
2021/12/02 00:27:08;;;;;;;6.18;1.38;;;4.10;99.90;;;;;;5036302;28;20044;-84
2021/12/02 00:29:36;;;;;;;5.28;1.02;;;4.10;99.90;;;;;;5052955;28;20075;-84
2021/12/02 00:32:05;;;;;;;7.90;1.10;;;4.10;99.90;;;;;;5049414;28;20037;-84
2021/12/02 00:34:31;;;;;;;9.25;1.35;;;4.10;99.90;;;;;;5049404;28;20052;-84
2021/12/02 00:36:57;;;;;;;9.52;1.23;;;4.10;99.90;;;;;;5049978;28;20044;-84
2021/12/02 00:39:23;;;;;;;11.18;1.60;;;4.10;99.90;;;;;;5049898;28;20037;-84
2021/12/02 00:41:49;;;;;;;8.15;1.27;;;4.10;99.90;;;;;;5049358;28;20086;-84
2021/12/02 00:44:18;;;;;;;10.18;1.77;;;4.10;99.90;;;;;;5048725;28;20049;-84
2021/12/02 00:46:45;;;;;;;11.15;2.30;;;4.10;99.90;;;;;;5049242;28;20043;-84
2021/12/02 00:49:15;;;;;;;9.27;1.40;;;4.10;99.90;;;;;;5049317;28;20040;-84
2021/12/02 00:51:44;;;;;;;6.60;1.42;;;4.20;99.90;;;;;;5049355;28;20045;-85
2021/12/02 00:54:11;;;;;;;5.05;1.10;;;4.10;99.90;;;;;;5049156;28;20116;-84
2021/12/02 00:56:38;;;;;;;9.18;1.75;;;4.10;99.90;;;;;;5049571;28;20048;-84
2021/12/02 00:59:05;;;;;;;6.43;1.40;;;4.10;99.90;;;;;;5032413;28;20525;-84
2021/12/02 01:01:35;;;;;;;7.55;1.35;;;4.00;99.90;;;;;;5049242;28;20044;-84
2021/12/02 01:04:14;;;;;;;5.70;0.82;;;4.00;99.90;;;;;;5048486;28;20045;-84
2021/12/02 01:06:40;;;;;;;8.50;1.40;;;3.90;99.90;;;;;;5052568;28;20037;-84
2021/12/02 01:09:09;;;;;;;6.45;1.10;;;3.90;99.90;;;;;;5053086;28;20048;-84
2021/12/02 01:11:34;;;;;;;8.13;1.70;;;3.90;99.90;;;;;;5052738;28;20086;-84
2021/12/02 01:14:01;;;;;;;8.73;1.60;;;3.80;99.90;;;;;;5035500;28;20040;-84
2021/12/02 01:16:27;;;;;;;7.93;1.70;;;3.80;99.90;;;;;;5052935;28;20037;-84
2021/12/02 01:18:53;;;;;;;4.70;1.00;;;3.80;99.90;;;;;;5052113;28;20039;-84
2021/12/02 01:21:21;;;;;;;7.20;1.00;;;3.80;99.90;;;;;;5052844;28;20029;-84
2021/12/02 01:24:01;;;;;;;8.18;1.38;;;3.70;99.90;;;;;;5050707;28;20041;-84
2021/12/02 01:26:29;;;;;;;9.25;1.73;;;3.70;99.90;;;;;;5052978;28;20044;-84
2021/12/02 01:28:56;;;;;;;5.20;1.10;;;3.70;99.90;;;;;;5052450;28;20033;-84
2021/12/02 01:31:22;;;;;;;5.50;1.00;;;3.70;99.90;;;;;;5052226;28;20041;-84
2021/12/02 01:33:48;;;;;;;4.18;0.90;;;3.70;99.90;;;;;;5052107;28;20087;-84
2021/12/02 01:36:14;;;;;;;9.30;1.05;;;3.70;99.90;;;;;;5035384;28;20041;-84
2021/12/02 01:38:40;;;;;;;9.40;2.10;;;3.70;99.90;;;;;;5052545;28;20056;-84
2021/12/02 01:41:06;;;;;;;6.75;1.10;;;3.70;99.90;;;;;;5035299;28;20075;-84
2021/12/02 01:43:42;;;;;;;6.35;1.27;;;3.70;99.90;;;;;;5051858;28;20037;-84
2021/12/02 01:46:08;;;;;;;7.68;1.13;;;3.70;99.90;;;;;;5052103;28;20045;-84
2021/12/02 01:48:37;;;;;;;6.97;0.93;;;3.60;99.90;;;;;;5036191;28;20045;-84
2021/12/02 01:51:05;;;;;;;7.30;1.02;;;3.60;99.90;;;;;;5035590;28;20080;-84
2021/12/02 01:53:34;;;;;;;9.77;1.20;;;3.60;99.90;;;;;;5052462;28;20053;-84
2021/12/02 01:56:12;;;;;;;4.40;1.23;;;3.60;99.90;;;;;;5052247;28;20040;-84
2021/12/02 01:58:43;;;;;;;5.00;1.42;;;3.50;99.90;;;;;;5052429;28;20045;-84
2021/12/02 02:01:15;;;;;;;5.30;1.00;;;3.50;99.90;;;;;;5052162;28;20037;-84
2021/12/02 02:03:41;;;;;;;6.10;0.93;;;3.60;99.90;;;;;;5035441;28;20132;-84
2021/12/02 02:06:09;;;;;;;8.10;0.88;;;3.60;99.90;;;;;;5051860;28;20040;-84
2021/12/02 02:08:41;;;;;;;9.48;1.92;;;3.60;99.90;;;;;;5051650;28;20033;-84
2021/12/02 02:11:08;;;;;;;4.00;0.90;;;3.70;99.90;;;;;;5052405;28;20029;-84
2021/12/02 02:13:34;;;;;;;10.90;1.25;;;3.70;99.90;;;;;;5051954;28;20116;-84
2021/12/02 02:16:00;;;;;;;4.55;0.93;;;3.70;99.90;;;;;;5052213;28;20052;-84
2021/12/02 02:18:26;;;;;;;7.22;1.20;;;3.70;99.90;;;;;;5052152;28;20052;-84
2021/12/02 02:21:08;;;;;;;7.38;1.55;;;3.70;99.90;;;;;;5052328;28;20083;-84
2021/12/02 02:23:38;;;;;;;7.13;1.45;;;3.80;99.90;;;;;;5045811;28;20055;-83
2021/12/02 02:26:06;;;;;;;4.90;0.98;;;3.90;99.90;;;;;;5034945;28;20045;-85
2021/12/02 02:28:32;;;;;;;3.85;0.82;;;3.90;99.90;;;;;;5018119;28;20071;-84
2021/12/02 02:30:58;;;;;;;7.57;0.98;;;3.90;99.90;;;;;;5037195;28;21169;-85
2021/12/02 02:33:24;;;;;;;4.47;0.70;;;3.90;99.90;;;;;;5054049;28;20123;-84
2021/12/02 02:35:50;;;;;;;7.68;1.05;;;3.90;99.90;;;;;;5037745;28;20037;-84
2021/12/02 02:38:16;;;;;;;5.47;0.80;;;3.90;99.90;;;;;;5038129;28;20047;-84
2021/12/02 02:40:45;;;;;;;4.53;0.70;;;3.80;99.90;;;;;;5052686;28;20492;-83
2021/12/02 02:43:19;;;;;;;4.40;0.85;;;3.80;99.90;;;;;;5054275;28;20048;-84
2021/12/02 02:45:45;;;;;;;3.83;1.17;;;3.70;99.90;;;;;;5037355;28;20635;-84
2021/12/02 02:48:11;;;;;;;6.32;0.98;;;3.60;99.90;;;;;;5056946;28;20122;-83
2021/12/02 02:50:36;;;;;;;2.97;0.70;;;3.50;99.90;;;;;;5074226;28;20043;-84
2021/12/02 02:53:12;;;;;;;3.92;0.88;;;3.40;99.90;;;;;;5057955;28;20032;-84
2021/12/02 02:55:38;;;;;;;4.88;1.13;;;3.40;99.90;;;;;;5065805;28;20060;-84
2021/12/02 03:03:51;;;;;;;2.05;0.40;;;3.20;99.90;;;;;;5050414;28;20487;-84
2021/12/02 03:08:57;;;;;;;3.15;0.65;;;3.10;99.90;;;;;;5074345;28;20435;-84
2021/12/02 03:11:23;;;;;;;3.05;0.70;;;3.00;99.90;;;;;;5057527;28;20039;-84
2021/12/02 03:13:51;;;;;;;1.70;0.50;;;3.00;99.90;;;;;;5073879;28;20044;-84
2021/12/02 03:19:05;;;;;;;1.65;0.60;;;2.90;99.90;;;;;;5059134;28;20048;-84
2021/12/02 03:21:31;;;;;;;3.30;0.70;;;2.90;99.90;;;;;;5054163;28;20113;-84
2021/12/02 03:24:00;;;;;;;3.15;0.68;;;2.80;99.90;;;;;;5069295;28;20044;-84
2021/12/02 03:26:27;;;;;;;2.55;0.68;;;2.80;99.90;;;;;;5037388;28;20074;-84
2021/12/02 03:28:53;;;;;;;5.85;0.77;;;2.80;99.90;;;;;;5070040;28;20066;-84
2021/12/02 03:31:20;;;;;;;2.10;0.47;;;2.80;99.90;;;;;;5033863;28;20040;-84
2021/12/02 03:33:46;;;;;;;3.28;0.63;;;2.80;99.90;;;;;;5050649;28;20150;-84
2021/12/02 03:36:14;;;;;;;4.05;0.90;;;2.70;99.90;;;;;;5033817;28;20041;-84
2021/12/02 03:38:40;;;;;;;2.25;0.60;;;2.70;99.90;;;;;;5034008;28;20124;-84
2021/12/02 03:41:05;;;;;;;2.28;0.45;;;2.70;99.90;;;;;;5050525;28;20602;-84
2021/12/02 03:43:38;;;;;;;2.55;0.80;;;2.60;99.90;;;;;;5050201;28;20509;-84
2021/12/02 03:46:04;;;;;;;2.58;0.80;;;2.60;99.90;;;;;;5033868;28;20047;-84
2021/12/02 03:48:30;;;;;;;4.55;0.80;;;2.60;99.90;;;;;;5033396;28;20033;-84
2021/12/02 03:50:58;;;;;;;2.85;0.68;;;2.50;99.90;;;;;;5050147;28;20433;-84
2021/12/02 03:53:23;;;;;;;2.22;0.70;;;2.50;99.90;;;;;;5050171;28;20037;-84
2021/12/02 03:55:49;;;;;;;4.32;0.95;;;2.40;99.90;;;;;;5032876;28;20102;-84
2021/12/02 03:58:15;;;;;;;2.85;0.80;;;2.40;99.90;;;;;;5049846;28;20123;-84
2021/12/02 04:00:40;;;;;;;3.70;0.70;;;2.30;99.90;;;;;;5033362;28;20072;-84
2021/12/02 04:03:06;;;;;;;3.97;0.75;;;2.30;99.90;;;;;;5049594;28;20068;-84
2021/12/02 04:05:32;;;;;;;5.07;0.80;;;2.30;99.90;;;;;;5032610;28;20044;-84
2021/12/02 04:07:58;;;;;;;3.65;0.70;;;2.20;99.90;;;;;;5049652;28;20090;-84
2021/12/02 04:10:24;;;;;;;6.22;1.00;;;2.10;99.90;;;;;;5032981;28;20453;-84
2021/12/02 04:13:08;;;;;;;3.65;0.82;;;2.10;99.90;;;;;;5032666;28;20044;-84
2021/12/02 04:15:38;;;;;;;2.60;0.70;;;2.00;99.90;;;;;;5049037;28;20044;-84
2021/12/02 04:18:03;;;;;;;5.00;0.90;;;2.00;99.90;;;;;;5032378;28;20072;-84
2021/12/02 04:20:29;;;;;;;3.28;0.60;;;2.00;99.90;;;;;;5049902;28;20056;-84
2021/12/02 04:22:56;;;;;;;4.28;0.77;;;2.00;99.90;;;;;;5031788;28;20041;-84
2021/12/02 04:25:23;;;;;;;3.85;1.00;;;2.00;99.90;;;;;;5048989;28;20049;-84
2021/12/02 04:27:50;;;;;;;4.15;1.30;;;2.00;99.90;;;;;;5049314;28;20040;-84
2021/12/02 04:30:18;;;;;;;3.05;1.05;;;2.00;99.90;;;;;;5049643;28;20044;-84
2021/12/02 04:32:44;;;;;;;2.95;0.52;;;2.00;99.90;;;;;;5049939;28;20040;-84
2021/12/02 04:35:12;;;;;;;2.75;0.82;;;2.00;99.90;;;;;;5050142;28;20041;-84
2021/12/02 04:37:40;;;;;;;2.95;0.90;;;2.10;99.90;;;;;;5049171;28;20486;-84
2021/12/02 04:40:06;;;;;;;2.65;0.60;;;2.10;99.90;;;;;;5048219;28;20045;-84
2021/12/02 04:42:33;;;;;;;1.88;0.57;;;2.20;99.90;;;;;;5049304;28;20064;-84
2021/12/02 04:44:58;;;;;;;2.85;0.50;;;2.20;99.90;;;;;;5049150;28;20041;-84
2021/12/02 04:47:24;;;;;;;4.57;0.73;;;2.20;99.90;;;;;;5048900;28;20041;-84
2021/12/02 04:49:50;;;;;;;2.60;0.50;;;2.20;99.90;;;;;;5049884;28;20123;-84
2021/12/02 04:52:16;;;;;;;5.15;0.77;;;2.20;99.90;;;;;;5049538;28;20120;-84
2021/12/02 04:54:42;;;;;;;4.53;0.95;;;2.20;99.90;;;;;;5048847;28;20067;-84
2021/12/02 04:57:08;;;;;;;1.98;0.65;;;2.20;99.90;;;;;;5049426;28;20045;-84
2021/12/02 04:59:33;;;;;;;2.47;0.68;;;2.20;99.90;;;;;;5032130;28;20041;-84
2021/12/02 05:01:59;;;;;;;2.97;0.60;;;2.20;99.90;;;;;;5049649;28;20406;-84
2021/12/02 05:04:25;;;;;;;2.85;0.70;;;2.20;99.90;;;;;;5048930;28;20128;-84
2021/12/02 05:06:50;;;;;;;2.95;0.70;;;2.20;99.90;;;;;;5049015;28;20055;-84
2021/12/02 05:09:16;;;;;;;4.78;0.75;;;2.20;99.90;;;;;;5049401;28;20044;-84
2021/12/02 05:11:41;;;;;;;3.63;0.80;;;2.20;99.90;;;;;;5032882;28;20504;-84
2021/12/02 05:14:08;;;;;;;3.22;0.70;;;2.10;99.90;;;;;;5048785;28;20598;-84
2021/12/02 05:16:35;;;;;;;1.85;0.70;;;2.10;99.90;;;;;;5049213;28;20044;-84
2021/12/02 05:19:01;;;;;;;0.98;0.45;;;2.20;99.90;;;;;;5048936;28;20048;-84
2021/12/02 05:21:27;;;;;;;3.60;0.85;;;2.20;99.90;;;;;;5032189;28;20111;-84
2021/12/02 05:23:53;;;;;;;2.30;0.70;;;2.20;99.90;;;;;;5039734;28;20079;-84
2021/12/02 05:26:24;;;;;;;4.25;0.73;;;2.30;99.90;;;;;;5032385;28;20045;-84
2021/12/02 05:28:51;;;;;;;5.20;0.93;;;2.20;99.90;;;;;;5032520;28;20159;-84
2021/12/02 05:31:18;;;;;;;4.60;0.90;;;2.30;99.90;;;;;;5021228;28;20394;-84
2021/12/02 05:33:44;;;;;;;3.40;0.93;;;2.30;99.90;;;;;;5052221;28;20123;-84
2021/12/02 05:36:09;;;;;;;4.80;1.00;;;2.30;99.90;;;;;;5052503;28;20151;-84
2021/12/02 05:38:35;;;;;;;3.47;0.75;;;2.30;99.90;;;;;;5051897;28;20860;-84
2021/12/02 05:41:03;;;;;;;6.15;0.90;;;2.30;99.90;;;;;;5052868;28;20040;-84
2021/12/02 05:43:29;;;;;;;4.47;0.80;;;2.20;99.90;;;;;;5052005;28;20051;-84
2021/12/02 05:45:54;;;;;;;1.98;0.73;;;2.20;99.90;;;;;;5052286;28;20630;-84
2021/12/02 05:48:20;;;;;;;7.50;1.00;;;2.30;99.90;;;;;;5052416;28;20163;-84
2021/12/02 05:50:46;;;;;;;2.75;0.68;;;2.30;99.90;;;;;;5035508;28;20166;-84
2021/12/02 05:53:11;;;;;;;2.65;0.55;;;2.30;99.90;;;;;;5054526;28;20072;-84
2021/12/02 05:55:37;;;;;;;1.05;0.50;;;2.30;99.90;;;;;;5055565;28;20043;-84
2021/12/02 05:58:03;;;;;;;2.40;0.75;;;2.30;99.90;;;;;;5055772;28;20145;-84
2021/12/02 06:00:28;;;;;;;4.50;0.70;;;2.30;99.90;;;;;;5055690;28;20546;-84
2021/12/02 06:02:54;;;;;;;5.68;0.70;;;2.30;99.90;;;;;;5055648;28;20040;-84
2021/12/02 06:05:20;;;;;;;3.53;0.70;;;2.30;99.90;;;;;;5054740;28;20044;-84
2021/12/02 06:07:50;;;;;;;3.92;0.82;;;2.30;99.90;;;;;;5055518;28;20402;-84
2021/12/02 06:10:17;;;;;;;4.57;0.80;;;2.30;99.90;;;;;;5039011;28;20044;-84
2021/12/02 06:12:43;;;;;;;2.50;0.73;;;2.30;99.90;;;;;;5055246;28;20055;-84
2021/12/02 06:15:10;;;;;;;3.30;0.80;;;2.30;99.90;;;;;;5033349;28;20087;-83
2021/12/02 06:17:36;;;;;;;2.17;0.70;;;2.30;99.90;;;;;;5034573;28;20067;-84
2021/12/02 06:20:06;;;;;;;2.70;0.60;;;2.30;99.90;;;;;;5034636;28;20049;-84
2021/12/02 06:22:32;;;;;;;2.65;0.70;;;2.20;99.90;;;;;;5035310;28;20437;-84
2021/12/02 06:27:43;;;;;;;0.95;0.50;;;2.20;99.90;;;;;;5074923;28;20131;-84
2021/12/02 06:30:11;;;;;;;1.98;0.55;;;2.30;99.90;;;;;;5074534;28;20079;-84
2021/12/02 06:32:36;;;;;;;1.73;0.55;;;2.30;99.90;;;;;;5057714;28;20530;-84
2021/12/02 06:35:02;;;;;;;3.22;0.73;;;2.20;99.90;;;;;;5074160;28;20033;-84
2021/12/02 06:37:29;;;;;;;2.83;0.52;;;2.20;99.90;;;;;;5057774;28;20044;-84
2021/12/02 06:39:55;;;;;;;2.08;0.80;;;2.20;99.90;;;;;;5057959;28;20040;-84
2021/12/02 06:42:20;;;;;;;3.15;0.77;;;2.10;99.90;;;;;;5074692;28;20043;-83
2021/12/02 06:44:46;;;;;;;5.57;0.90;;;2.10;99.90;;;;;;5073729;28;20044;-83
2021/12/02 06:47:12;;;;;;;5.57;1.00;;;2.10;99.90;;;;;;5074284;28;20040;-84
2021/12/02 06:49:41;;;;;;;4.85;1.00;;;2.10;99.90;;;;;;5074281;28;20119;-83
2021/12/02 06:52:11;;;;;;;5.72;1.17;;;2.20;99.90;;;;;;5074344;28;20055;-84
2021/12/02 06:54:37;;;;;;;4.60;1.00;;;2.20;99.90;;;;;;5073950;28;20040;-84
2021/12/02 06:57:03;;;;;;;5.05;1.13;;;2.20;99.90;;;;;;5074571;28;20113;-84
2021/12/02 06:59:28;;;;;;;2.85;0.80;;;2.30;99.90;;;;;;5058290;28;20044;-85
2021/12/02 07:01:55;;;;;;;5.45;1.17;;;2.20;99.90;;;;;;5075597;28;20039;-85
2021/12/02 07:04:20;;;;;;;2.35;0.80;;;2.30;99.90;;;;;;5057080;28;20050;-84
2021/12/02 07:06:46;;;;;;;4.55;1.25;;;2.30;99.90;;;;;;5056791;28;20040;-84
2021/12/02 07:09:12;;;;;;;3.40;0.80;;;2.30;99.90;;;;;;5054227;28;20044;-84
2021/12/02 07:11:38;;;;;;;4.28;0.90;;;2.30;99.90;;;;;;5053683;28;20119;-85
2021/12/02 07:14:07;;;;;;;3.15;0.80;;;2.30;99.90;;;;;;5037198;28;20822;-85
2021/12/02 07:16:33;;;;;;;2.10;0.68;;;2.30;99.90;;;;;;5036822;28;20082;-85
2021/12/02 07:19:02;;;;;;;3.00;0.70;;;2.40;99.90;;;;;;5053418;28;20448;-85
2021/12/02 07:21:28;;;;;;;3.72;0.60;;;2.40;99.90;;;;;;5036114;28;20125;-85
2021/12/02 07:23:54;;;;;;;3.65;1.00;;;2.40;99.90;;;;;;5047986;28;20060;-85
2021/12/02 07:26:19;;;;;;;8.60;1.20;;;2.40;99.90;;;;;;5057386;28;20458;-85
2021/12/02 07:28:46;;;;;;;3.17;0.90;;;2.40;99.90;;;;;;5056816;28;20043;-85
2021/12/02 07:31:12;;;;;;;5.28;0.80;;;2.50;99.90;;;;;;5057054;28;20463;-85
2021/12/02 07:33:42;;;;;;;4.45;0.77;;;2.50;99.90;;;;;;5073131;28;20147;-85
2021/12/02 07:36:08;;;;;;;2.65;0.68;;;2.50;99.90;;;;;;5073233;28;20032;-85
2021/12/02 07:38:37;;;;;;;2.10;0.70;;;2.50;99.90;;;;;;5073289;28;20040;-85
2021/12/02 07:41:04;;;;;;;6.30;1.00;;;2.50;99.90;;;;;;5073411;28;20036;-85
2021/12/02 07:43:35;;;;;;;3.83;0.90;;;2.50;99.90;;;;;;5073130;28;20400;-85
2021/12/02 07:46:03;;;;;;;5.32;1.08;;;2.50;99.90;;;;;;5073022;28;20051;-85
2021/12/02 07:48:29;;;;;;;3.83;1.00;;;2.50;99.90;;;;;;5057018;28;20032;-85
2021/12/02 07:50:55;;;;;;;4.13;0.80;;;2.40;99.90;;;;;;5056809;28;20507;-85
2021/12/02 07:53:24;;;;;;;3.70;1.08;;;2.50;99.90;;;;;;5056906;28;20040;-86
2021/12/02 07:55:51;;;;;;;4.78;0.98;;;2.50;99.90;;;;;;5073097;28;20040;-85
2021/12/02 07:58:20;;;;;;;2.83;1.15;;;2.50;99.90;;;;;;5073276;28;20088;-85
2021/12/02 08:00:45;;;;;;;4.00;1.17;;;2.50;99.90;;;;;;5056484;28;20040;-85
2021/12/02 08:03:12;;;;;;;4.97;1.40;;;2.50;99.90;;;;;;5072989;28;20174;-85
2021/12/02 08:05:38;;;;;;;4.63;1.38;;;2.60;99.90;;;;;;5071054;28;20424;-84
2021/12/02 08:08:04;;;;;;;3.55;1.10;;;2.60;99.90;;;;;;5046935;28;20040;-84
2021/12/02 08:10:30;;;;;;;3.35;1.30;;;2.60;99.90;;;;;;5049402;28;20047;-85
2021/12/02 08:12:59;;;;;;;2.40;1.13;;;2.60;99.90;;;;;;5051052;28;20032;-85
2021/12/02 08:15:27;;;;;;;2.55;1.20;;;2.60;99.90;;;;;;5051464;28;20041;-84
2021/12/02 08:17:54;;;;;;;4.20;1.23;;;2.50;99.90;;;;;;5067251;28;20086;-84
2021/12/02 08:20:22;;;;;;;3.72;1.25;;;2.50;99.90;;;;;;5047349;28;20397;-84
2021/12/02 08:22:48;;;;;;;3.47;1.30;;;2.50;99.90;;;;;;5046524;28;20041;-85
2021/12/02 08:25:14;;;;;;;3.20;1.25;;;2.50;99.90;;;;;;5072714;28;20047;-84
2021/12/02 08:27:41;;;;;;;4.50;1.50;;;2.50;99.90;;;;;;5054006;28;20643;-83
2021/12/02 08:30:09;;;;;;;4.07;1.40;;;2.50;99.90;;;;;;5049992;28;20405;-84
2021/12/02 08:32:38;;;;;;;3.40;1.33;;;2.50;99.90;;;;;;5043085;28;20041;-84
2021/12/02 08:35:04;;;;;;;4.30;1.30;;;2.50;99.90;;;;;;5038310;28;20042;-84
2021/12/02 08:37:32;;;;;;;4.88;1.30;;;2.50;99.90;;;;;;5021208;28;20033;-84
2021/12/02 08:39:59;;;;;;;4.30;1.35;;;2.50;99.90;;;;;;5039256;28;20508;-84
2021/12/02 08:42:31;;;;;;;3.47;1.20;;;2.60;99.90;;;;;;5041259;28;20497;-84
2021/12/02 08:44:57;;;;;;;5.50;1.25;;;2.60;99.90;;;;;;5048575;28;20047;-85
2021/12/02 08:47:23;;;;;;;5.28;1.40;;;2.60;99.90;;;;;;5032603;28;20045;-85
2021/12/02 08:49:53;;;;;;;4.22;1.30;;;2.70;99.90;;;;;;5049193;28;20051;-85
2021/12/02 08:52:20;;;;;;;4.50;1.35;;;2.70;99.90;;;;;;5034799;28;20026;-83
2021/12/02 08:54:47;;;;;;;5.30;1.80;;;2.80;99.90;;;;;;5029577;28;20540;-84
2021/12/02 08:57:13;;;;;;;6.63;1.52;;;2.80;99.90;;;;;;5052033;28;20115;-84
2021/12/02 08:59:40;;;;;;;4.97;1.80;;;2.90;99.90;;;;;;5035203;28;20123;-84
2021/12/02 09:02:06;;;;;;;6.63;1.90;;;3.00;99.90;;;;;;5042606;28;20090;-85
2021/12/02 09:04:31;;;;;;;8.60;2.10;;;3.00;99.90;;;;;;5028575;28;20049;-84
2021/12/02 09:06:57;;;;;;;7.18;1.88;;;3.10;99.90;;;;;;5025828;28;20622;-85
2021/12/02 09:09:25;;;;;;;6.93;1.85;;;3.10;99.90;;;;;;5028033;28;20414;-84
2021/12/02 09:11:51;;;;;;;5.50;2.05;;;3.20;99.90;;;;;;5027003;28;20087;-85
2021/12/02 09:14:17;;;;;;;7.15;2.33;;;3.20;99.90;;;;;;5042289;28;20071;-86
2021/12/02 09:16:42;;;;;;;5.53;2.20;;;3.30;99.90;;;;;;5046816;28;20410;-86
2021/12/02 09:19:08;;;;;;;5.15;1.65;;;3.30;99.90;;;;;;5046210;28;20117;-86
2021/12/02 09:21:34;;;;;;;8.05;2.10;;;3.30;99.90;;;;;;5048291;28;20517;-86
2021/12/02 09:23:59;;;;;;;6.90;1.90;;;3.30;99.90;;;;;;5030154;28;20041;-83
2021/12/02 09:26:25;;;;;;;4.25;1.60;;;3.30;99.90;;;;;;5048217;28;20106;-83
2021/12/02 09:28:56;;;;;;;4.22;1.30;;;3.40;99.90;;;;;;5053409;28;20037;-85
2021/12/02 09:31:23;;;;;;;4.95;1.42;;;3.40;99.90;;;;;;5052557;28;20056;-85
2021/12/02 09:33:49;;;;;;;3.35;1.15;;;3.40;99.90;;;;;;5053747;28;20148;-85
2021/12/02 09:36:16;;;;;;;5.07;1.30;;;3.50;99.90;;;;;;5053872;28;20104;-85
2021/12/02 09:38:43;;;;;;;4.28;1.30;;;3.50;99.90;;;;;;5052423;28;20033;-85
2021/12/02 09:41:09;;;;;;;3.03;1.10;;;3.50;99.90;;;;;;5036048;28;20045;-86
2021/12/02 09:43:35;;;;;;;3.03;1.20;;;3.60;99.90;;;;;;5052157;28;20132;-85
2021/12/02 09:46:00;;;;;;;4.82;1.17;;;3.60;99.90;;;;;;5051348;28;20451;-85
2021/12/02 09:48:28;;;;;;;8.18;1.33;;;3.70;99.90;;;;;;5052200;28;20033;-85
2021/12/02 09:51:03;;;;;;;3.83;1.08;;;3.70;99.90;;;;;;5051941;28;20121;-84
2021/12/02 09:53:34;;;;;;;4.45;1.27;;;3.80;99.90;;;;;;5051671;28;20033;-85
2021/12/02 09:56:18;;;;;;;4.05;1.00;;;3.80;99.90;;;;;;5052199;28;20037;-84
2021/12/02 09:58:44;;;;;;;4.20;1.10;;;3.80;99.90;;;;;;5052095;28;20124;-84
2021/12/02 10:01:15;;;;;;;3.83;1.05;;;3.80;99.90;;;;;;5052570;28;20123;-84
2021/12/02 10:03:44;;;;;;;2.80;0.95;;;3.90;99.90;;;;;;5051821;28;20049;-84
2021/12/02 10:06:20;;;;;;;3.65;1.10;;;3.90;99.90;;;;;;5051859;28;20041;-85
2021/12/02 10:09:05;;;;;;;6.13;1.67;;;3.90;99.90;;;;;;5035393;28;20029;-85
2021/12/02 10:11:38;;;;;;;5.35;1.63;;;3.90;99.90;;;;;;5052191;28;20249;-85
2021/12/02 10:14:26;;;;;;;6.55;2.03;;;4.00;99.90;;;;;;5034765;28;20033;-85
2021/12/02 10:17:41;;;;;;;5.55;2.00;;;4.10;99.90;;;;;;5051770;28;20120;-85
2021/12/02 10:20:17;;;;;;;7.18;2.00;;;4.20;99.90;;;;;;5050843;28;20102;-85
2021/12/02 10:23:20;;;;;;;7.03;2.10;;;4.40;99.90;;;;;;5052879;28;20041;-85
2021/12/02 10:25:47;;;;;;;5.95;1.48;;;4.50;99.90;;;;;;5054621;28;20066;-85
2021/12/02 10:28:16;;;;;;;6.00;1.80;;;4.50;99.90;;;;;;5038011;28;20068;-86
2021/12/02 10:31:03;;;;;;;5.97;1.88;;;4.60;99.90;;;;;;5055253;28;20036;-86
2021/12/02 10:33:33;;;;;;;3.35;1.00;;;4.70;99.90;;;;;;5074051;28;20040;-85
2021/12/02 10:36:01;;;;;;;5.82;1.30;;;4.70;99.90;;;;;;5074535;28;20047;-85
2021/12/02 10:38:44;;;;;;;3.17;1.10;;;4.80;99.90;;;;;;5073493;28;20089;-85
2021/12/02 10:41:17;;;;;;;;;;;4.80;99.90;;;;;;5075363;28;20122;-86
2021/12/02 10:44:34;;;;;;;3.95;0.90;;;4.80;99.90;;;;;;5056960;28;19916;-85
2021/12/02 10:47:07;;;;;;;3.88;0.90;;;4.90;99.90;;;;;;5041525;28;20424;-85
2021/12/02 10:49:42;;;;;;;2.92;0.98;;;4.90;99.90;;;;;;5057641;28;20515;-85
2021/12/02 10:52:11;;;;;;;5.43;1.10;;;4.90;99.90;;;;;;5057903;28;20047;-85
2021/12/02 10:54:41;;;;;;;4.65;1.10;;;5.00;99.90;;;;;;5057248;28;20040;-85
2021/12/02 10:57:28;;;;;;;2.78;1.10;;;5.00;99.90;;;;;;5057384;28;20050;-85
2021/12/02 11:00:14;;;;;;;3.20;1.20;;;5.00;99.90;;;;;;5057072;28;20040;-85
2021/12/02 11:02:46;;;;;;;6.53;1.10;;;5.00;99.90;;;;;;5073304;28;20161;-85
2021/12/02 11:05:31;;;;;;;6.47;1.30;;;5.10;99.90;;;;;;5073840;28;20047;-85
2021/12/02 11:08:05;;;;;;;11.40;4.05;;;5.10;99.90;;;;;;5074090;28;20302;-84
2021/12/02 11:10:57;;;;;;;7.60;1.92;;;5.10;99.90;;;;;;5074048;28;20040;-84
2021/12/02 11:13:25;;;;;;;6.75;1.85;;;5.10;99.90;;;;;;5070034;28;20051;-84
2021/12/02 11:15:52;;;;;;;8.25;2.70;;;5.20;99.90;;;;;;5074160;28;20040;-84
2021/12/02 11:18:17;;;;;;;9.38;2.45;;;5.20;99.90;;;;;;5057071;28;20036;-84
2021/12/02 11:20:47;;;;;;;7.65;1.77;;;5.30;99.90;;;;;;5057546;28;20044;-84
2021/12/02 11:23:17;;;;;;;5.93;1.30;;;5.30;99.90;;;;;;5051246;28;20579;-84
2021/12/02 11:25:49;;;;;;;3.85;1.20;;;5.40;99.90;;;;;;5053844;28;20106;-84
2021/12/02 11:28:15;;;;;;;3.22;1.00;;;5.40;99.90;;;;;;5036641;28;20048;-84
2021/12/02 11:30:41;;;;;;;3.30;1.00;;;5.40;99.90;;;;;;5053148;28;20465;-85
2021/12/02 11:33:09;;;;;;;3.90;1.20;;;5.40;99.90;;;;;;5053766;28;20039;-85
2021/12/02 11:35:36;;;;;;;2.97;0.80;;;5.40;99.90;;;;;;5052985;28;20486;-85
2021/12/02 11:38:07;;;;;;;3.20;0.88;;;5.30;99.90;;;;;;5037350;28;20405;-84
2021/12/02 11:40:40;;;;;;;3.90;1.20;;;5.10;99.90;;;;;;5053341;28;20048;-85
2021/12/02 11:43:08;;;;;;;5.15;1.50;;;5.00;99.90;;;;;;5037014;28;20047;-86
2021/12/02 11:45:44;;;;;;;5.80;1.00;;;5.00;99.90;;;;;;5052427;28;20037;-84
2021/12/02 11:48:11;;;;;;;7.40;2.45;;;5.00;99.90;;;;;;5046932;28;20037;-84
2021/12/02 11:50:37;;;;;;;4.82;1.73;;;4.90;99.90;;;;;;5015963;28;20043;-84
2021/12/02 11:53:04;;;;;;;1.92;0.65;;;4.90;99.90;;;;;;5033700;28;20037;-85
2021/12/02 11:55:35;;;;;;;1.98;0.70;;;4.90;99.90;;;;;;5018112;28;20489;-85
2021/12/02 11:58:01;;;;;;;4.18;0.65;;;4.90;99.90;;;;;;5069443;28;20400;-85
2021/12/02 12:00:29;;;;;;;3.40;0.60;;;4.90;99.90;;;;;;5061828;28;20056;-85
2021/12/02 12:02:59;;;;;;;4.55;0.85;;;4.90;99.90;;;;;;5027510;28;20045;-85
2021/12/02 12:05:54;;;;;;;3.28;0.65;;;4.90;99.90;;;;;;5020313;28;20111;-85
2021/12/02 12:08:35;;;;;;;1.98;0.57;;;4.90;99.90;;;;;;5060439;28;20056;-85
2021/12/02 12:11:27;;;;;;;5.22;0.70;;;4.80;99.90;;;;;;5056876;28;20093;-85
2021/12/02 12:14:02;;;;;;;3.60;0.47;;;4.80;99.90;;;;;;5053244;28;20127;-84
2021/12/02 12:16:32;;;;;;;3.80;0.68;;;4.80;99.90;;;;;;5036460;28;20435;-85
2021/12/02 12:19:18;;;;;;;2.50;0.63;;;4.80;99.90;;;;;;5052189;28;20393;-84
2021/12/02 12:21:55;;;;;;;2.78;0.63;;;4.80;99.90;;;;;;5034816;28;20036;-85
2021/12/02 12:24:54;;;;;;;0.98;0.50;;;4.80;99.90;;;;;;5051903;28;20116;-85
2021/12/02 12:27:29;;;;;;;3.03;1.27;;;4.80;99.90;;;;;;5052981;28;20037;-84
2021/12/02 12:30:00;;;;;;;1.45;0.50;;;4.80;99.90;;;;;;5052763;28;20044;-85
2021/12/02 12:32:38;;;;;;;1.25;0.30;;;4.90;99.90;;;;;;5033305;28;20628;-85
2021/12/02 12:35:09;;;;;;;0.57;0.20;;;4.90;99.90;;;;;;5032695;28;20429;-84
2021/12/02 12:37:48;;;;;;;5.78;1.80;;;4.90;99.90;;;;;;5033046;28;20079;-84
2021/12/02 12:40:29;;;;;;;8.70;2.88;;;4.90;99.90;;;;;;5020737;28;20037;-85
2021/12/02 12:43:02;;;;;;;6.35;2.05;;;4.90;99.90;;;;;;5039250;28;20397;-84
2021/12/02 12:45:31;;;;;;;7.85;1.75;;;4.90;99.90;;;;;;5053192;28;20045;-84
2021/12/02 12:48:00;;;;;;;2.13;0.82;;;4.90;99.90;;;;;;5031985;28;20482;-84
2021/12/02 12:50:38;;;;;;;1.25;0.57;;;5.00;99.90;;;;;;5042266;28;20728;-85
2021/12/02 12:53:04;;;;;;;0.73;0.70;;;5.70;99.90;;;;;;5032383;28;20075;-85
2021/12/02 12:55:59;;;;;;;1.13;0.40;;;7.60;99.90;;;;;;5048536;28;20045;-85
2021/12/02 12:58:27;;;;;;;1.95;0.35;;;9.00;99.90;;;;;;5016050;28;20048;-85
2021/12/02 13:01:01;;;;;;;2.08;0.50;;;9.10;99.90;;;;;;5016431;28;20127;-85
2021/12/02 13:03:39;;;;;;;0.68;0.43;;;8.70;99.90;;;;;;5052926;28;20063;-85
2021/12/02 13:06:19;;;;;;;1.25;0.40;;;8.20;99.90;;;;;;5052822;28;20040;-85
2021/12/02 13:08:55;;;;;;;2.35;0.65;;;7.80;99.90;;;;;;5035981;28;20037;-85
2021/12/02 13:11:31;;;;;;;2.28;0.60;;;7.30;99.90;;;;;;5052498;28;20040;-85
2021/12/02 13:13:57;;;;;;;1.38;0.60;;;7.00;99.90;;;;;;5052496;28;20049;-84
2021/12/02 13:16:23;;;;;;;1.40;0.80;;;6.80;99.90;;;;;;5052779;28;20552;-85
2021/12/02 13:18:52;;;;;;;3.33;1.48;;;6.60;99.90;;;;;;5036369;28;20048;-85
2021/12/02 13:21:21;;;;;;;6.22;1.60;;;6.50;99.90;;;;;;5036277;28;20060;-84
2021/12/02 13:24:02;;;;;;;4.07;1.67;;;6.30;99.90;;;;;;5052061;28;20127;-85
2021/12/02 13:26:31;;;;;;;6.22;1.95;;;6.10;99.90;;;;;;5052888;28;20532;-85